createdAt,value
2019-06-10T00:00:27.049Z,101672.05
2019-06-10T00:03:00.347Z,101672.77
2019-06-10T00:05:30.501Z,101672.23
2019-06-10T00:08:03.836Z,101673.34
2019-06-10T00:10:31.641Z,101665.28
2019-06-10T00:13:02.166Z,101665.48
2019-06-10T00:15:31.387Z,101666.34
2019-06-10T00:18:18.676Z,101663.65
2019-06-10T00:20:33.719Z,101655.88
2019-06-10T00:23:03.492Z,101654.94
2019-06-10T00:25:33.253Z,101646.81
2019-06-10T00:28:05.808Z,101643.67
2019-06-10T00:30:34.559Z,101644.54
2019-06-10T00:33:06.076Z,101646.20
2019-06-10T00:35:34.162Z,101632.57
2019-06-10T00:38:07.303Z,101626.68
2019-06-10T00:40:35.207Z,101626.17
2019-06-10T00:43:05.710Z,101625.86
2019-06-10T00:45:37.177Z,101615.97
2019-06-10T00:48:15.820Z,101605.73
2019-06-10T00:50:35.731Z,101611.95
2019-06-10T00:53:05.816Z,101610.25
2019-06-10T00:55:34.292Z,101602.87
2019-06-10T00:58:04.062Z,101610.59
2019-06-10T01:00:32.561Z,101608.59
2019-06-10T01:03:02.341Z,101605.54
2019-06-10T01:05:31.742Z,101603.47
2019-06-10T01:08:01.345Z,101607.91
2019-06-10T01:10:31.640Z,101610.89
2019-06-10T01:13:00.842Z,101596.59
2019-06-10T01:15:31.100Z,101596.98
2019-06-10T01:18:01.504Z,101591.04
2019-06-10T01:20:29.903Z,101590.31
2019-06-10T01:22:58.374Z,101587.41
2019-06-10T01:25:31.069Z,101585.29
2019-06-10T01:28:00.600Z,101577.56
2019-06-10T01:30:34.892Z,101571.05
2019-06-10T01:33:03.337Z,101529.22
2019-06-10T01:35:31.754Z,101582.11
2019-06-10T01:38:02.837Z,101581.70
2019-06-10T01:40:32.267Z,101573.99
2019-06-10T01:43:01.679Z,101569.11
2019-06-10T01:45:31.221Z,101573.41
2019-06-10T01:48:01.436Z,101568.48
2019-06-10T01:50:34.912Z,101563.94
2019-06-10T01:53:10.133Z,101555.89
2019-06-10T01:55:41.468Z,101554.86
2019-06-10T01:58:13.238Z,101541.84
2019-06-10T02:00:42.178Z,101535.46
2019-06-10T02:03:13.265Z,101540.46
2019-06-10T02:05:41.915Z,101526.88
2019-06-10T02:08:13.310Z,101526.33
2019-06-10T02:10:41.718Z,101469.83
2019-06-10T02:13:13.617Z,101514.91
2019-06-10T02:15:42.859Z,101516.92
2019-06-10T02:18:13.312Z,101510.48
2019-06-10T02:20:43.809Z,101494.95
2019-06-10T02:23:14.117Z,101497.61
2019-06-10T02:25:44.909Z,101492.65
2019-06-10T02:28:14.898Z,101489.05
2019-06-10T02:30:50.924Z,101487.47
2019-06-10T02:33:17.434Z,101476.61
2019-06-10T02:35:48.839Z,101472.20
2019-06-10T02:38:24.683Z,101472.27
2019-06-10T02:40:49.316Z,101466.10
2019-06-10T02:43:27.894Z,101468.05
2019-06-10T02:45:49.498Z,101473.59
2019-06-10T02:48:21.513Z,101476.34
2019-06-10T02:50:54.703Z,101464.88
2019-06-10T02:53:30.201Z,101458.83
2019-06-10T02:55:54.135Z,101457.89
2019-06-10T02:58:33.264Z,101457.98
2019-06-10T03:01:04.596Z,101461.75
2019-06-10T03:03:43.261Z,101459.52
2019-06-10T03:06:08.193Z,101453.38
2019-06-10T03:08:36.552Z,101456.15
2019-06-10T03:11:09.128Z,101447.31
2019-06-10T03:13:37.539Z,101456.03
2019-06-10T03:16:10.361Z,101471.39
2019-06-10T03:18:43.268Z,101465.21
2019-06-10T03:21:12.376Z,101457.70
2019-06-10T03:23:49.182Z,101459.86
2019-06-10T03:26:23.634Z,101459.39
2019-06-10T03:28:52.045Z,101447.63
2019-06-10T03:31:22.280Z,101441.47
2019-06-10T03:33:54.297Z,101443.16
2019-06-10T03:36:23.115Z,101442.09
2019-06-10T03:38:53.507Z,101437.40
2019-06-10T03:41:23.295Z,101426.72
2019-06-10T03:43:53.120Z,101425.38
2019-06-10T03:46:23.778Z,101421.34
2019-06-10T03:48:53.941Z,101415.81
2019-06-10T03:51:24.336Z,101421.91
2019-06-10T03:53:53.576Z,101420.10
2019-06-10T03:56:25.459Z,101415.75
2019-06-10T03:58:54.882Z,101409.12
2019-06-10T04:01:30.118Z,101412.39
2019-06-10T04:03:58.567Z,101407.08
2019-06-10T04:06:29.538Z,101402.52
2019-06-10T04:08:57.992Z,101404.72
2019-06-10T04:11:27.384Z,101392.95
2019-06-10T04:13:56.563Z,101386.77
2019-06-10T04:16:26.686Z,101378.65
2019-06-10T04:18:55.132Z,101375.11
2019-06-10T04:21:25.444Z,101380.70
2019-06-10T04:23:53.693Z,101377.58
2019-06-10T04:26:25.763Z,101382.67
2019-06-10T04:28:54.403Z,101383.08
2019-06-10T04:31:23.738Z,101381.11
2019-06-10T04:33:52.959Z,101380.51
2019-06-10T04:36:24.446Z,101374.50
2019-06-10T04:38:55.313Z,101384.72
2019-06-10T04:41:29.142Z,101375.52
2019-06-10T04:43:57.623Z,101381.34
2019-06-10T04:46:26.790Z,101375.38
2019-06-10T04:49:02.498Z,101371.91
2019-06-10T04:51:33.969Z,101377.47
2019-06-10T04:54:03.127Z,101377.36
2019-06-10T04:56:33.421Z,101376.30
2019-06-10T04:59:03.092Z,101381.03
2019-06-10T05:01:33.552Z,101375.80
2019-06-10T05:04:03.174Z,101372.19
2019-06-10T05:06:32.805Z,101373.06
2019-06-10T05:09:01.365Z,101364.60
2019-06-10T05:11:30.855Z,101360.52
2019-06-10T05:14:02.536Z,101360.11
2019-06-10T05:16:32.387Z,101365.20
2019-06-10T05:19:00.305Z,101356.27
2019-06-10T05:21:29.775Z,101351.79
2019-06-10T05:23:58.862Z,101359.84
2019-06-10T05:26:28.793Z,101354.20
2019-06-10T05:28:57.385Z,101347.62
2019-06-10T05:31:28.554Z,101343.17
2019-06-10T05:33:56.928Z,101342.53
2019-06-10T05:36:30.137Z,101336.05
2019-06-10T05:38:58.992Z,101332.11
2019-06-10T05:41:28.956Z,101334.52
2019-06-10T05:43:57.527Z,101331.03
2019-06-10T05:46:27.270Z,101327.14
2019-06-10T05:48:58.766Z,101327.16
2019-06-10T05:51:27.881Z,101333.27
2019-06-10T05:53:58.666Z,101341.91
2019-06-10T05:56:29.570Z,101333.84
2019-06-10T05:59:01.574Z,101334.77
2019-06-10T06:01:37.965Z,101335.78
2019-06-10T06:04:06.236Z,101338.31
2019-06-10T06:06:35.438Z,101342.57
2019-06-10T06:09:08.908Z,101344.85
2019-06-10T06:11:38.426Z,101338.97
2019-06-10T06:14:09.757Z,101332.32
2019-06-10T06:16:38.367Z,101334.61
2019-06-10T06:19:06.923Z,101326.41
2019-06-10T06:21:42.768Z,101342.40
2019-06-10T06:24:08.886Z,101337.63
2019-06-10T06:26:43.058Z,101336.61
2019-06-10T06:29:15.301Z,101338.97
2019-06-10T06:31:46.838Z,101344.11
2019-06-10T06:34:16.219Z,101337.20
2019-06-10T06:36:52.691Z,101335.14
2019-06-10T06:39:20.437Z,101323.09
2019-06-10T06:42:04.417Z,101315.47
2019-06-10T06:44:37.395Z,101314.67
2019-06-10T06:47:04.054Z,101315.86
2019-06-10T06:49:37.191Z,101318.54
2019-06-10T06:52:12.657Z,101316.63
2019-06-10T06:54:46.684Z,101321.60
2019-06-10T06:57:18.770Z,101324.29
2019-06-10T06:59:47.186Z,101314.36
2019-06-10T07:02:15.598Z,101304.39
2019-06-10T07:04:44.022Z,101300.68
2019-06-10T07:07:17.833Z,101291.66
2019-06-10T07:09:49.245Z,101292.30
2019-06-10T07:12:19.161Z,101293.23
2019-06-10T07:14:52.701Z,101294.09
2019-06-10T07:17:23.585Z,101294.00
2019-06-10T07:19:57.708Z,101286.27
2019-06-10T07:22:26.205Z,101284.75
2019-06-10T07:24:54.647Z,101286.22
2019-06-10T07:27:24.744Z,101283.80
2019-06-10T07:29:55.837Z,101280.36
2019-06-10T07:32:24.323Z,101287.23
2019-06-10T07:34:55.329Z,101283.94
2019-06-10T07:37:24.008Z,101292.83
2019-06-10T07:39:52.522Z,101286.86
2019-06-10T07:42:22.716Z,101287.77
2019-06-10T07:44:53.279Z,101291.86
2019-06-10T07:47:23.111Z,101286.92
2019-06-10T07:49:54.151Z,101278.95
2019-06-10T07:52:34.356Z,101274.81
2019-06-10T07:55:02.344Z,101270.58
2019-06-10T07:57:29.971Z,101274.47
2019-06-10T07:59:58.398Z,101267.88
2019-06-10T08:02:26.841Z,101266.11
2019-06-10T08:04:57.814Z,101263.06
2019-06-10T08:07:33.492Z,101264.35
2019-06-10T08:10:07.285Z,101261.02
2019-06-10T08:12:41.217Z,101257.52
2019-06-10T08:15:12.467Z,101254.88
2019-06-10T08:17:44.466Z,101257.81
2019-06-10T08:20:13.582Z,101255.91
2019-06-10T08:22:57.452Z,101255.53
2019-06-10T08:25:26.421Z,101248.21
2019-06-10T08:28:03.128Z,101247.18
2019-06-10T08:30:33.966Z,101251.60
2019-06-10T08:33:03.396Z,101247.56
2019-06-10T08:35:47.204Z,101252.61
2019-06-10T08:38:09.441Z,101257.62
2019-06-10T08:40:45.010Z,101257.01
2019-06-10T08:43:16.705Z,101255.98
2019-06-10T08:45:47.028Z,101254.42
2019-06-10T08:48:19.206Z,101247.05
2019-06-10T08:50:49.876Z,101245.27
2019-06-10T08:53:22.706Z,101248.01
2019-06-10T08:55:53.635Z,101249.64
2019-06-10T08:58:23.079Z,101247.77
2019-06-10T09:00:54.364Z,101252.97
2019-06-10T09:03:26.288Z,101250.58
2019-06-10T09:05:57.721Z,101254.61
2019-06-10T09:08:25.517Z,101261.77
2019-06-10T09:10:55.073Z,101255.45
2019-06-10T09:13:23.943Z,101260.54
2019-06-10T09:16:10.916Z,101266.78
2019-06-10T09:18:29.073Z,101265.14
2019-06-10T09:20:57.490Z,101260.03
2019-06-10T09:23:25.979Z,101260.14
2019-06-10T09:25:57.508Z,101255.28
2019-06-10T09:28:25.832Z,101257.04
2019-06-10T09:30:59.591Z,101251.76
2019-06-10T09:33:33.102Z,101241.08
2019-06-10T09:36:05.459Z,101231.88
2019-06-10T09:38:36.930Z,101231.88
2019-06-10T09:41:06.325Z,101233.66
2019-06-10T09:43:34.918Z,101223.27
2019-06-10T09:46:03.817Z,101228.33
2019-06-10T09:48:35.986Z,101220.27
2019-06-10T09:51:05.498Z,101212.87
2019-06-10T09:53:42.366Z,101205.53
2019-06-10T09:56:07.123Z,101203.29
2019-06-10T09:58:46.093Z,101199.61
2019-06-10T10:01:14.336Z,101203.02
2019-06-10T10:03:47.947Z,101191.12
2019-06-10T10:06:15.626Z,101189.08
2019-06-10T10:08:45.987Z,101176.47
2019-06-10T10:11:15.715Z,101173.41
2019-06-10T10:13:47.380Z,101174.30
2019-06-10T10:16:19.345Z,101165.09
2019-06-10T10:18:52.117Z,101159.00
2019-06-10T10:21:41.334Z,101150.94
2019-06-10T10:24:07.094Z,101156.95
2019-06-10T10:26:28.515Z,101158.58
2019-06-10T10:28:59.035Z,101166.25
2019-06-10T10:31:28.476Z,101166.05
2019-06-10T10:33:56.900Z,101171.58
2019-06-10T10:36:33.382Z,101171.56
2019-06-10T10:39:02.495Z,101170.22
2019-06-10T10:41:38.094Z,101179.43
2019-06-10T10:44:06.452Z,101179.06
2019-06-10T10:46:34.988Z,101172.98
2019-06-10T10:49:13.066Z,101176.13
2019-06-10T10:51:52.401Z,101176.20
2019-06-10T10:54:32.800Z,101180.45
2019-06-10T10:57:02.461Z,101180.61
2019-06-10T10:59:34.083Z,101175.45
2019-06-10T11:02:06.267Z,101171.23
2019-06-10T11:04:35.001Z,101168.34
2019-06-10T11:07:05.418Z,101170.20
2019-06-10T11:09:42.476Z,101155.14
2019-06-10T11:12:16.559Z,101144.15
2019-06-10T11:14:49.266Z,101139.54
2019-06-10T11:17:22.699Z,101128.84
2019-06-10T11:19:53.700Z,101145.89
2019-06-10T11:22:23.173Z,101145.02
2019-06-10T11:24:54.398Z,101139.87
2019-06-10T11:27:26.083Z,101138.79
2019-06-10T11:29:57.418Z,101129.02
2019-06-10T11:32:29.396Z,101123.78
2019-06-10T11:35:02.940Z,101129.64
2019-06-10T11:37:31.361Z,101123.02
2019-06-10T11:40:04.441Z,101115.15
2019-06-10T11:42:33.857Z,101114.59
2019-06-10T11:45:02.937Z,101107.03
2019-06-10T11:47:32.982Z,101105.85
2019-06-10T11:50:03.518Z,101095.05
2019-06-10T11:52:36.536Z,101093.84
2019-06-10T11:55:15.158Z,100890.36
2019-06-10T11:57:38.541Z,101110.52
2019-06-10T12:00:13.937Z,101108.42
2019-06-10T12:02:53.187Z,101099.98
2019-06-10T12:05:16.484Z,101096.77
2019-06-10T12:07:46.119Z,101089.89
2019-06-10T12:10:17.218Z,101084.87
2019-06-10T12:12:48.911Z,101088.39
2019-06-10T12:15:22.775Z,101088.36
2019-06-10T12:17:58.589Z,101088.23
2019-06-10T12:20:28.551Z,101090.16
2019-06-10T12:23:04.594Z,101089.34
2019-06-10T12:25:39.863Z,101087.73
2019-06-10T12:28:14.270Z,101077.45
2019-06-10T12:30:46.769Z,101079.43
2019-06-10T12:33:27.819Z,101083.97
2019-06-10T12:36:00.294Z,101086.69
2019-06-10T12:38:32.526Z,101088.80
2019-06-10T12:41:14.208Z,101090.94
2019-06-10T12:43:52.991Z,101081.36
2019-06-10T12:46:23.454Z,101083.30
2019-06-10T12:49:03.928Z,101087.77
2019-06-10T12:51:32.724Z,101088.99
2019-06-10T12:54:06.165Z,101084.82
2019-06-10T12:56:34.593Z,101089.67
2019-06-10T12:59:09.309Z,101075.20
2019-06-10T13:01:36.658Z,101070.91
2019-06-10T13:04:09.566Z,101068.42
2019-06-10T13:06:46.072Z,101060.32
2019-06-10T13:09:24.390Z,101070.42
2019-06-10T13:11:57.864Z,101069.77
2019-06-10T13:14:29.759Z,101067.39
2019-06-10T13:17:03.054Z,101067.44
2019-06-10T13:19:45.142Z,101074.92
2019-06-10T13:22:23.092Z,101070.62
2019-06-10T13:24:56.780Z,101059.34
2019-06-10T13:27:31.924Z,101056.53
2019-06-10T13:30:04.591Z,101051.98
2019-06-10T13:32:36.673Z,101059.12
2019-06-10T13:35:12.943Z,101056.20
2019-06-10T13:37:48.594Z,101052.52
2019-06-10T13:40:22.722Z,101048.37
2019-06-10T13:43:12.312Z,101054.59
2019-06-10T13:45:43.125Z,101052.36
2019-06-10T13:48:15.673Z,101051.56
2019-06-10T13:50:46.708Z,101040.48
2019-06-10T13:53:16.395Z,101037.11
2019-06-10T13:56:23.481Z,101038.84
2019-06-10T13:58:33.096Z,101031.84
2019-06-10T14:01:07.378Z,101026.77
2019-06-10T14:03:43.030Z,101018.94
2019-06-10T14:06:31.382Z,101025.64
2019-06-10T14:08:43.084Z,101023.83
2019-06-10T14:11:19.602Z,101013.99
2019-06-10T14:13:52.628Z,101011.70
2019-06-10T14:16:25.214Z,101007.60
2019-06-10T14:18:54.225Z,100998.97
2019-06-10T14:21:26.572Z,101002.75
2019-06-10T14:23:54.473Z,101001.17
2019-06-10T14:26:36.445Z,100997.52
2019-06-10T14:28:58.151Z,100990.28
2019-06-10T14:31:40.509Z,100985.98
2019-06-10T14:34:04.296Z,100974.69
2019-06-10T14:36:34.431Z,100984.48
2019-06-10T14:39:04.047Z,100979.75
2019-06-10T14:41:35.039Z,100982.57
2019-06-10T14:44:04.555Z,100982.28
2019-06-10T14:46:33.079Z,100974.40
2019-06-10T14:49:02.455Z,100965.88
2019-06-10T14:51:32.600Z,100967.55
2019-06-10T14:54:03.102Z,100967.56
2019-06-10T14:56:33.181Z,100964.75
2019-06-10T14:59:05.365Z,100966.41
2019-06-10T15:01:33.887Z,100958.87
2019-06-10T15:04:02.969Z,100958.11
2019-06-10T15:06:33.869Z,100960.55
2019-06-10T15:09:02.852Z,100954.66
2019-06-10T15:11:33.895Z,100948.83
2019-06-10T15:14:04.044Z,100947.37
2019-06-10T15:16:34.909Z,100948.31
2019-06-10T15:19:14.608Z,100940.59
2019-06-10T15:21:33.453Z,100954.39
2019-06-10T15:24:02.967Z,100956.80
2019-06-10T15:26:36.237Z,100958.58
2019-06-10T15:29:11.873Z,100952.63
2019-06-10T15:31:43.817Z,100941.92
2019-06-10T15:34:23.585Z,100935.78
2019-06-10T15:36:59.641Z,100926.59
2019-06-10T15:39:36.108Z,100928.58
2019-06-10T15:42:09.448Z,100925.83
2019-06-10T15:45:03.856Z,100922.14
2019-06-10T15:47:36.049Z,100918.71
2019-06-10T15:50:05.899Z,100918.84
2019-06-10T15:52:52.373Z,100928.73
2019-06-10T15:55:47.713Z,100928.62
2019-06-10T15:57:54.307Z,100921.34
2019-06-10T16:00:29.169Z,100920.47
2019-06-10T16:03:03.146Z,100921.25
2019-06-10T16:05:34.649Z,100917.16
2019-06-10T16:08:04.119Z,100922.88
2019-06-10T16:10:32.838Z,100932.05
2019-06-10T16:13:12.499Z,100938.82
2019-06-10T16:15:43.271Z,100939.42
2019-06-10T16:18:27.217Z,100937.88
2019-06-10T16:20:57.984Z,100936.17
2019-06-10T16:23:27.035Z,100934.70
2019-06-10T16:26:03.246Z,100941.23
2019-06-10T16:28:32.943Z,100952.52
2019-06-10T16:31:07.449Z,100954.66
2019-06-10T16:33:49.356Z,100948.30
2019-06-10T16:36:17.283Z,100957.38
2019-06-10T16:38:56.060Z,100962.18
2019-06-10T16:41:28.472Z,100964.59
2019-06-10T16:44:03.007Z,100974.77
2019-06-10T16:46:32.637Z,100987.61
2019-06-10T16:49:03.274Z,100986.45
2019-06-10T16:51:31.339Z,100993.36
2019-06-10T16:54:02.269Z,100995.49
2019-06-10T16:59:25.552Z,100987.24
2019-06-10T17:02:02.123Z,100982.28
2019-06-10T17:04:36.597Z,100975.52
2019-06-10T17:07:07.201Z,100975.89
2019-06-10T17:09:39.390Z,100973.15
2019-06-10T17:12:07.509Z,100973.43
2019-06-10T17:14:38.074Z,100978.77
2019-06-10T17:17:18.606Z,100977.41
2019-06-10T17:19:51.967Z,100970.48
2019-06-10T17:22:28.702Z,100972.23
2019-06-10T17:24:59.723Z,100968.95
2019-06-10T17:27:32.726Z,100968.50
2019-06-10T17:30:08.870Z,100969.45
2019-06-10T17:32:37.437Z,100972.63
2019-06-10T17:35:14.280Z,100982.17
2019-06-10T17:37:43.169Z,100983.59
2019-06-10T17:40:12.951Z,100980.59
2019-06-10T17:42:48.906Z,100968.30
2019-06-10T17:45:24.497Z,100972.76
2019-06-10T17:47:53.841Z,100960.08
2019-06-10T17:50:24.965Z,100956.74
2019-06-10T17:52:55.603Z,100964.27
2019-06-10T17:55:28.167Z,100958.83
2019-06-10T17:57:56.981Z,100947.67
2019-06-10T18:00:36.087Z,100942.56
2019-06-10T18:03:29.362Z,100937.14
2019-06-10T18:06:09.774Z,100937.48
2019-06-10T18:08:46.883Z,100934.87
2019-06-10T18:11:18.585Z,100940.48
2019-06-10T18:13:47.001Z,100931.39
2019-06-10T18:16:22.419Z,100927.78
2019-06-10T18:18:57.053Z,100926.16
2019-06-10T18:21:28.421Z,100920.83
2019-06-10T18:24:08.093Z,100508.55
2019-06-10T18:26:37.799Z,100920.41
2019-06-10T18:29:09.351Z,100924.14
2019-06-10T18:31:42.767Z,100927.20
2019-06-10T18:34:13.190Z,100933.16
2019-06-10T18:36:42.730Z,100933.83
2019-06-10T18:39:14.020Z,100932.98
2019-06-10T18:41:46.930Z,100938.19
2019-06-10T18:44:23.042Z,100946.92
2019-06-10T18:46:50.437Z,100939.94
2019-06-10T18:49:18.876Z,100933.40
2019-06-10T18:51:49.644Z,100932.91
2019-06-10T18:54:22.531Z,100924.80
2019-06-10T18:56:52.576Z,100925.59
2019-06-10T18:59:21.516Z,100924.65
2019-06-10T19:01:52.860Z,100929.85
2019-06-10T19:04:22.480Z,100910.32
2019-06-10T19:07:02.953Z,100919.18
2019-06-10T19:09:36.388Z,100913.00
2019-06-10T19:12:07.684Z,100913.34
2019-06-10T19:14:37.079Z,100916.22
2019-06-10T19:17:06.251Z,100910.52
2019-06-10T19:19:36.025Z,100907.83
2019-06-10T19:22:09.004Z,100915.28
2019-06-10T19:24:36.727Z,100916.55
2019-06-10T19:27:06.261Z,100911.38
2019-06-10T19:29:44.328Z,100902.41
2019-06-10T19:32:06.933Z,100898.67
2019-06-10T19:34:35.419Z,100895.58
2019-06-10T19:37:04.035Z,100895.67
2019-06-10T19:39:40.248Z,100891.83
2019-06-10T19:42:05.096Z,100896.92
2019-06-10T19:44:37.094Z,100897.95
2019-06-10T19:47:05.702Z,100892.88
2019-06-10T19:49:35.322Z,100902.63
2019-06-10T19:52:07.713Z,100887.20
2019-06-10T19:54:37.003Z,100876.34
2019-06-10T19:57:06.463Z,100868.50
2019-06-10T20:00:02.778Z,100863.13
2019-06-10T20:02:16.671Z,100859.59
2019-06-10T20:04:53.117Z,100852.43
2019-06-10T20:07:26.231Z,100856.77
2019-06-10T20:09:54.822Z,100847.06
2019-06-10T20:12:23.244Z,100844.91
2019-06-10T20:14:52.867Z,100853.19
2019-06-10T20:17:32.768Z,100856.48
2019-06-10T20:20:03.554Z,100854.20
2019-06-10T20:22:32.125Z,100855.16
2019-06-10T20:25:00.617Z,100857.43
2019-06-10T20:27:33.070Z,100852.16
2019-06-10T20:30:10.131Z,100858.05
2019-06-10T20:32:34.087Z,100857.22
2019-06-10T20:35:05.065Z,100849.23
2019-06-10T20:37:33.486Z,100851.33
2019-06-10T20:40:03.581Z,100848.01
2019-06-10T20:42:33.374Z,100850.70
2019-06-10T20:45:02.777Z,100851.53
2019-06-10T20:47:37.617Z,100846.98
2019-06-10T20:50:09.582Z,100853.38
2019-06-10T20:52:38.007Z,100856.08
2019-06-10T20:55:12.717Z,100871.69
2019-06-10T20:57:52.119Z,100874.89
2019-06-10T21:00:22.385Z,100867.14
2019-06-10T21:02:49.012Z,100869.95
2019-06-10T21:05:18.806Z,100886.06
2019-06-10T21:07:52.205Z,100884.46
2019-06-10T21:10:26.981Z,100883.75
2019-06-10T21:12:57.367Z,100888.18
2019-06-10T21:15:25.783Z,100888.58
2019-06-10T21:18:01.340Z,100888.49
2019-06-10T21:20:33.153Z,100876.81
2019-06-10T21:23:03.104Z,100864.51
2019-06-10T21:25:32.634Z,100864.42
2019-06-10T21:28:03.230Z,100868.42
2019-06-10T21:30:41.300Z,100872.34
2019-06-10T21:33:03.604Z,100875.22
2019-06-10T21:35:34.385Z,100869.28
2019-06-10T21:38:04.345Z,100863.31
2019-06-10T21:40:33.273Z,100862.84
2019-06-10T21:43:04.596Z,100852.19
2019-06-10T21:45:35.682Z,100846.19
2019-06-10T21:48:04.214Z,100846.48
2019-06-10T21:50:36.088Z,100846.57
2019-06-10T21:53:04.743Z,100865.30
2019-06-10T21:55:33.419Z,100857.77
2019-06-10T21:58:03.712Z,100845.16
2019-06-10T22:00:52.805Z,100837.61
2019-06-10T22:03:15.504Z,100845.04
2019-06-10T22:05:49.551Z,100840.72
2019-06-10T22:08:20.048Z,100837.80
2019-06-10T22:11:02.505Z,100833.84
2019-06-10T22:13:32.866Z,100829.63
2019-06-10T22:16:03.219Z,100841.91
2019-06-10T22:18:35.281Z,100832.50
2019-06-10T22:21:03.859Z,100817.39
2019-06-10T22:23:33.067Z,100817.39
2019-06-10T22:26:05.687Z,100825.05
2019-06-10T22:28:34.473Z,100824.42
2019-06-10T22:31:19.076Z,100823.05
2019-06-10T22:33:43.144Z,100814.14
2019-06-10T22:36:13.039Z,100812.09
2019-06-10T22:38:42.393Z,100819.84
2019-06-10T22:41:12.275Z,100807.75
2019-06-10T22:43:42.688Z,100810.51
2019-06-10T22:46:13.610Z,100814.68
2019-06-10T22:48:49.397Z,100814.68
2019-06-10T22:51:18.924Z,100824.81
2019-06-10T22:53:48.416Z,100817.15
2019-06-10T22:56:19.466Z,100824.67
2019-06-10T22:58:47.907Z,100822.91
2019-06-10T23:01:31.742Z,100822.52
2019-06-10T23:03:54.174Z,100824.92
2019-06-10T23:06:23.206Z,100828.23
2019-06-10T23:08:54.685Z,100839.48
2019-06-10T23:11:29.169Z,100832.98
2019-06-10T23:14:03.036Z,100835.06
2019-06-10T23:16:30.637Z,100839.19
2019-06-10T23:19:03.831Z,100836.69
2019-06-10T23:21:33.772Z,100836.51
2019-06-10T23:24:03.375Z,100848.20
2019-06-10T23:26:35.465Z,100838.48
2019-06-10T23:29:03.906Z,100843.33
2019-06-10T23:31:49.629Z,100836.19
2019-06-10T23:34:06.695Z,100830.30
2019-06-10T23:36:37.141Z,100827.29
2019-06-10T23:39:07.430Z,100830.72
2019-06-10T23:41:35.871Z,100844.99
2019-06-10T23:44:04.631Z,100844.84
2019-06-10T23:46:38.137Z,100819.73
2019-06-10T23:49:06.634Z,100818.49
2019-06-10T23:51:38.561Z,100828.49
2019-06-10T23:54:08.127Z,100825.38
2019-06-10T23:56:42.841Z,100821.36
2019-06-10T23:59:17.653Z,100816.37
